• Join FlightAware (Why Join?)
  • Login
  • US Flag 
09:49AM EDT


 

Airport Tracker/Info


-or-


 

Live Flight TrackerFlight Track Log ✈ ASQ5963 ✈ 13-Sep-2013 ✈ KALB - KEWR

Flight Track Log - Related Links

Times and Time Zones

All times are in EDT time to prevent confusion due to time zone crossing. See the ASQ5963 flight status page for this flight to view local times or setup timezone preferences in your user account.

Time Position Orientation Groundspeed Altitude Reporting Facility
EDT Latitude Longitude Course Direction KTS MPH feet Rate Location/Type
06:08AM 42.7694 -73.8089 202° Southwest 174 200 1,100  Level Boston Center
06:08AM 42.7839 -73.8064 North 172 198 1,900 1,980 Climbing Boston Center
06:09AM 42.7872 -73.8800 274° West 213 245 4,300 2,100 Climbing Boston Center
06:10AM 42.5588 -73.8369 198° South  Level Estimated
06:10AM 42.7161 -73.9039 194° South 208 239 6,800  Level Boston Center
06:11AM 42.4995 -73.8698 202° Southwest  Level FlightAware Approximate
06:11AM 42.6428 -73.9275 193° South 231 266 9,200  Level Boston Center
06:12AM 42.4402 -73.9026 202° Southwest  Level FlightAware Approximate
06:12AM 42.5697 -73.9483 192° South 269 310 11,500  Level Boston Center
06:13AM 42.3810 -73.9354 202° Southwest  Level FlightAware Approximate
06:13AM 42.4944 -73.9692 192° South 277 319 13,000  Level Boston Center
06:14AM 42.4064 -74.0006 195° South 310 357 13,700 960 Climbing Boston Center
06:15AM 42.3142 -74.0292 193° South 329 379 15,000 1,080 Climbing Boston Center
06:16AM 42.2222 -74.0606 194° South 340 391 15,900 480 Climbing Boston Center
06:17AM 42.1217 -74.0917 193° South 350 403 16,000  Climbing Boston Center
06:18AM 42.0253 -74.1253 195° South 364 419 16,000 -180 Level Boston Center
06:19AM 41.9414 -74.1650 199° South 358 412 15,700 -1,200 Descending Boston Center
06:20AM 41.8342 -74.2094 197° South 364 419 13,700 -1,980 Descending Boston Center
06:21AM 41.7503 -74.2461 198° South 364 419 11,800 -1,560 Descending Boston Center
06:22AM 41.6517 -74.2878 198° South 358 412 10,600 -1,380 Descending Boston Center
06:23AM 41.5867 -74.3164 198° South 309 356 9,100 -1,740 Descending Boston Center
06:24AM 41.5069 -74.3500 198° South 275 316 7,200 -780 Descending Boston Center
06:26AM 41.3833 -74.4000 197° South 264 304 7,100 -120 Descending New York TRACON
06:27AM 41.3167 -74.4333 201° Southwest 270 311 7,000  Descending New York TRACON
06:28AM 41.2500 -74.4667 201° Southwest 275 316 7,100  Climbing New York TRACON
06:29AM 41.1833 -74.5000 201° Southwest 273 314 7,000  Descending New York TRACON
06:30AM 41.1167 -74.5167 191° South 264 304 7,100 -240 Climbing New York TRACON
06:31AM 41.0500 -74.5000 169° South 289 333 6,600 -900 Descending New York TRACON
06:32AM 41.0667 -74.4000 78° East 278 320 5,400 -780 Descending New York TRACON
06:33AM 41.0667 -74.3167 90° East 246 283 5,100 -480 Descending New York TRACON
06:34AM 41.0500 -74.2167 102° East 246 283 4,400 -600 Descending New York TRACON
06:35AM 41.0167 -74.1667 131° Southeast 239 275 4,000 -180 Descending New York TRACON
06:36AM 40.9667 -74.1333 153° Southeast 238 274 4,100 -420 Climbing New York TRACON
06:36AM 40.9000 -74.1000 159° South 237 273 3,300 -660 Descending New York TRACON
06:37AM 40.8500 -74.1000 180° South 235 270 3,000 -360 Descending New York TRACON
06:38AM 40.7833 -74.1000 180° South 231 266 2,700 -1,020 Descending New York TRACON
06:39AM 40.7333 -74.1333 207° Southwest 191 220 1,100 -1,620 Descending New York TRACON